createdAt,value
2023-01-13T00:00:50.260Z,4.75
2023-01-13T00:03:53.283Z,4.75
2023-01-13T00:06:55.971Z,4.53
2023-01-13T00:09:58.676Z,4.35
2023-01-13T00:13:03.354Z,4.85
2023-01-13T00:16:10.396Z,5.13
2023-01-13T00:19:13.273Z,4.32
2023-01-13T00:22:16.015Z,4.50
2023-01-13T00:25:18.700Z,4.38
2023-01-13T00:28:21.415Z,4.68
2023-01-13T00:31:24.161Z,4.40
2023-01-13T00:34:26.848Z,4.13
2023-01-13T00:37:29.694Z,4.50
2023-01-13T00:40:33.376Z,4.57
2023-01-13T00:43:37.612Z,4.68
2023-01-13T00:46:40.455Z,4.68
2023-01-13T00:49:43.755Z,4.38
2023-01-13T00:52:47.457Z,4.27
2023-01-13T00:55:50.324Z,4.07
2023-01-13T00:58:54.289Z,4.60
2023-01-13T01:01:57.131Z,4.80
2023-01-13T01:05:01.144Z,4.10
2023-01-13T01:08:04.139Z,4.60
2023-01-13T01:11:09.909Z,4.40
2023-01-13T01:14:14.482Z,4.40
2023-01-13T01:17:17.192Z,4.43
2023-01-13T01:20:20.874Z,4.10
2023-01-13T01:23:23.815Z,4.17
2023-01-13T01:26:28.272Z,4.95
2023-01-13T01:29:31.120Z,4.13
2023-01-13T01:32:34.970Z,3.85
2023-01-13T01:35:41.461Z,4.20
2023-01-13T01:38:45.185Z,4.30
2023-01-13T01:42:06.630Z,4.50
2023-01-13T01:45:20.918Z,4.13
2023-01-13T01:48:23.851Z,3.90
2023-01-13T01:51:30.850Z,3.95
2023-01-13T01:54:42.272Z,4.33
2023-01-13T01:58:34.358Z,4.30
2023-01-13T02:01:38.665Z,4.18
2023-01-13T02:04:51.217Z,4.68
2023-01-13T02:07:57.065Z,4.47
2023-01-13T02:10:59.796Z,4.17
2023-01-13T02:14:02.468Z,4.40
2023-01-13T02:17:32.949Z,3.92
2023-01-13T02:21:13.960Z,4.22
2023-01-13T02:24:42.072Z,4.18
2023-01-13T02:28:00.045Z,3.60
2023-01-13T02:31:33.801Z,3.85
2023-01-13T02:34:46.140Z,3.67
2023-01-13T02:37:49.689Z,4.05
2023-01-13T02:41:23.887Z,3.90
2023-01-13T02:44:37.572Z,3.60
2023-01-13T02:47:44.247Z,3.80
2023-01-13T02:50:55.908Z,3.63
2023-01-13T02:54:06.786Z,4.25
2023-01-13T02:57:11.761Z,3.83
2023-01-13T03:00:16.610Z,3.70
2023-01-13T03:03:19.561Z,4.05
2023-01-13T03:06:35.497Z,3.83
2023-01-13T03:09:52.387Z,3.85
2023-01-13T03:13:03.994Z,3.90
2023-01-13T03:16:43.617Z,4.07
2023-01-13T03:20:00.736Z,3.90
2023-01-13T03:23:08.044Z,3.60
2023-01-13T03:26:22.721Z,4.10
2023-01-13T03:29:36.200Z,3.50
2023-01-13T03:32:46.528Z,3.90
2023-01-13T03:35:56.268Z,3.90
2023-01-13T03:39:04.132Z,3.70
2023-01-13T03:42:23.879Z,3.78
2023-01-13T03:45:27.562Z,3.47
2023-01-13T03:48:32.954Z,3.33
2023-01-13T03:51:39.257Z,3.78
2023-01-13T03:54:49.563Z,3.55
2023-01-13T03:57:57.934Z,3.47
2023-01-13T04:01:22.404Z,3.30
2023-01-13T04:04:25.188Z,3.40
2023-01-13T04:07:51.902Z,3.45
2023-01-13T04:11:20.333Z,3.70
2023-01-13T04:14:26.004Z,3.67
2023-01-13T04:17:31.989Z,3.40
2023-01-13T04:20:34.956Z,3.40
2023-01-13T04:23:37.685Z,3.63
2023-01-13T04:26:40.321Z,3.40
2023-01-13T04:29:42.999Z,3.40
2023-01-13T04:32:45.654Z,3.50
2023-01-13T04:35:48.312Z,3.17
2023-01-13T04:38:51.783Z,3.63
2023-01-13T04:42:01.374Z,3.35
2023-01-13T04:45:04.421Z,3.35
2023-01-13T04:48:07.256Z,3.50
2023-01-13T04:51:10.111Z,3.33
2023-01-13T04:54:13.609Z,3.00
2023-01-13T04:57:16.239Z,3.20
2023-01-13T05:00:21.267Z,3.22
2023-01-13T05:03:24.505Z,3.30
2023-01-13T05:06:27.107Z,3.20
2023-01-13T05:09:29.920Z,3.38
2023-01-13T05:12:51.782Z,3.60
2023-01-13T05:16:23.961Z,3.58
2023-01-13T05:19:35.109Z,3.28
2023-01-13T05:22:56.641Z,3.33
2023-01-13T05:25:59.451Z,3.08
2023-01-13T05:29:02.237Z,3.40
2023-01-13T05:32:07.851Z,3.33
2023-01-13T05:35:10.539Z,3.30
2023-01-13T05:38:13.666Z,3.27
2023-01-13T05:41:34.984Z,3.45
2023-01-13T05:44:37.904Z,3.25
2023-01-13T05:47:40.655Z,3.33
2023-01-13T05:50:44.890Z,3.40
2023-01-13T05:53:47.515Z,2.90
2023-01-13T05:56:50.143Z,3.10
2023-01-13T05:59:52.881Z,3.60
2023-01-13T06:02:55.634Z,3.30
2023-01-13T06:06:01.763Z,3.40
2023-01-13T06:09:04.549Z,3.00
2023-01-13T06:12:08.329Z,3.08
2023-01-13T06:15:11.891Z,3.30
2023-01-13T06:18:14.569Z,3.25
2023-01-13T06:21:17.234Z,3.33
2023-01-13T06:24:19.843Z,3.13
2023-01-13T06:27:24.071Z,3.42
2023-01-13T06:30:34.943Z,3.13
2023-01-13T06:33:44.500Z,3.20
2023-01-13T06:36:52.003Z,3.30
2023-01-13T06:39:58.804Z,3.50
2023-01-13T06:43:16.544Z,3.47
2023-01-13T06:46:19.712Z,3.15
2023-01-13T06:49:23.957Z,3.45
2023-01-13T06:52:30.433Z,3.47
2023-01-13T06:55:34.392Z,3.30
2023-01-13T06:58:37.334Z,3.47
2023-01-13T07:01:40.150Z,3.10
2023-01-13T07:04:44.489Z,3.38
2023-01-13T07:07:47.254Z,3.53
2023-01-13T07:10:51.388Z,3.77
2023-01-13T07:14:13.026Z,3.45
2023-01-13T07:17:25.511Z,3.45
2023-01-13T07:20:30.917Z,3.08
2023-01-13T07:23:39.940Z,3.28
2023-01-13T07:26:42.563Z,3.20
2023-01-13T07:29:45.390Z,3.88
2023-01-13T07:32:48.383Z,3.40
2023-01-13T07:35:59.845Z,3.67
2023-01-13T07:39:03.391Z,3.42
2023-01-13T07:42:25.494Z,3.40
2023-01-13T07:45:28.555Z,3.60
2023-01-13T07:48:35.713Z,3.50
2023-01-13T07:51:39.711Z,3.28
2023-01-13T07:54:42.422Z,3.50
2023-01-13T07:57:45.269Z,3.60
2023-01-13T08:00:50.333Z,3.60
2023-01-13T08:03:54.703Z,3.40
2023-01-13T08:06:59.449Z,3.55
2023-01-13T08:10:06.481Z,4.03
2023-01-13T08:13:19.997Z,3.63
2023-01-13T08:16:22.825Z,3.63
2023-01-13T08:19:25.469Z,3.75
2023-01-13T08:22:30.413Z,3.20
2023-01-13T08:25:33.192Z,3.40
2023-01-13T08:28:36.297Z,3.87
2023-01-13T08:31:39.086Z,3.47
2023-01-13T08:34:42.021Z,3.85
2023-01-13T08:37:46.433Z,3.47
2023-01-13T08:40:49.065Z,3.47
2023-01-13T08:43:53.925Z,3.70
2023-01-13T08:47:02.344Z,4.50
2023-01-13T08:50:07.992Z,3.60
2023-01-13T08:53:11.558Z,3.60
2023-01-13T08:56:15.764Z,3.53
2023-01-13T08:59:20.050Z,4.03
2023-01-13T09:02:24.728Z,3.95
2023-01-13T09:05:28.306Z,3.65
2023-01-13T09:08:31.038Z,3.80
2023-01-13T09:11:55.537Z,3.92
2023-01-13T09:14:58.630Z,3.40
2023-01-13T09:18:02.780Z,3.45
2023-01-13T09:21:06.326Z,3.30
2023-01-13T09:24:29.398Z,3.70
2023-01-13T09:27:32.415Z,3.50
2023-01-13T09:30:36.646Z,3.63
2023-01-13T09:33:58.254Z,3.60
2023-01-13T09:37:02.869Z,3.50
2023-01-13T09:40:38.779Z,3.40
2023-01-13T09:43:54.164Z,3.42
2023-01-13T09:47:02.929Z,3.33
2023-01-13T09:50:14.325Z,3.60
2023-01-13T09:53:26.127Z,3.67
2023-01-13T09:56:29.190Z,3.97
2023-01-13T09:59:36.493Z,3.65
2023-01-13T10:03:01.851Z,3.90
2023-01-13T10:06:35.770Z,3.70
2023-01-13T10:09:49.434Z,3.95
2023-01-13T10:13:13.504Z,3.95
2023-01-13T10:16:42.397Z,3.88
2023-01-13T10:19:51.333Z,3.63
2023-01-13T10:23:14.300Z,3.50
2023-01-13T10:26:58.681Z,3.90
2023-01-13T10:30:19.585Z,3.47
2023-01-13T10:33:28.601Z,4.40
2023-01-13T10:36:31.528Z,4.40
2023-01-13T10:39:44.093Z,3.47
2023-01-13T10:42:47.772Z,3.80
2023-01-13T10:46:12.212Z,3.63
2023-01-13T10:49:32.099Z,3.58
2023-01-13T10:52:43.902Z,3.60
2023-01-13T10:56:01.617Z,3.78
2023-01-13T10:59:27.414Z,3.90
2023-01-13T11:02:36.287Z,3.78
2023-01-13T11:05:39.298Z,4.28
2023-01-13T11:08:49.339Z,3.70
2023-01-13T11:11:56.090Z,3.70
2023-01-13T11:15:03.170Z,4.05
2023-01-13T11:18:28.949Z,3.80
2023-01-13T11:21:52.502Z,3.67
2023-01-13T11:25:05.349Z,3.83
2023-01-13T11:28:29.684Z,3.58
2023-01-13T11:31:48.297Z,4.03
2023-01-13T11:35:04.486Z,3.53
2023-01-13T11:38:20.465Z,4.15
2023-01-13T11:41:47.060Z,3.80
2023-01-13T11:45:01.675Z,3.88
2023-01-13T11:48:05.651Z,3.80
2023-01-13T11:51:13.992Z,3.65
2023-01-13T11:54:19.472Z,4.10
2023-01-13T11:58:16.495Z,3.50
2023-01-13T12:01:56.646Z,4.10
2023-01-13T12:05:19.471Z,3.75
2023-01-13T12:08:50.333Z,4.18
2023-01-13T12:12:26.681Z,4.15
2023-01-13T12:15:54.249Z,4.60
2023-01-13T12:19:20.178Z,3.90
2023-01-13T12:22:32.018Z,3.90
2023-01-13T12:25:41.409Z,4.53
2023-01-13T12:29:07.566Z,4.32
2023-01-13T12:32:16.740Z,4.30
2023-01-13T12:35:41.300Z,4.82
2023-01-13T12:38:49.093Z,3.97
2023-01-13T12:42:27.754Z,4.05
2023-01-13T12:45:32.948Z,4.60
2023-01-13T12:48:59.697Z,4.10
2023-01-13T12:52:15.280Z,4.15
2023-01-13T12:55:46.488Z,4.35
2023-01-13T12:58:49.438Z,4.25
2023-01-13T13:02:12.270Z,4.30
2023-01-13T13:05:15.981Z,3.90
2023-01-13T13:08:39.456Z,4.68
2023-01-13T13:12:03.649Z,4.10
2023-01-13T13:15:20.674Z,4.45
2023-01-13T13:18:27.560Z,4.05
2023-01-13T13:22:10.032Z,4.30
2023-01-13T13:25:22.800Z,4.07
2023-01-13T13:28:25.655Z,4.13
2023-01-13T13:31:40.279Z,4.05
2023-01-13T13:34:55.146Z,4.78
2023-01-13T13:38:43.098Z,3.80
2023-01-13T13:42:09.222Z,4.28
2023-01-13T13:45:39.122Z,4.30
2023-01-13T13:48:53.846Z,4.13
2023-01-13T13:52:21.219Z,4.30
2023-01-13T13:55:28.793Z,4.47
2023-01-13T13:58:35.626Z,4.20
2023-01-13T14:01:41.422Z,4.65
2023-01-13T14:04:44.601Z,4.90
2023-01-13T14:07:49.880Z,4.80
2023-01-13T14:10:54.167Z,4.90
2023-01-13T14:14:21.107Z,4.90
2023-01-13T14:17:27.493Z,4.70
2023-01-13T14:20:30.975Z,5.68
2023-01-13T14:23:34.212Z,5.45
2023-01-13T14:26:39.426Z,5.67
2023-01-13T14:29:42.829Z,7.53
2023-01-13T14:32:46.056Z,7.95
2023-01-13T14:36:27.592Z,6.18
2023-01-13T14:39:41.166Z,7.07
2023-01-13T14:42:43.877Z,6.20
2023-01-13T14:45:59.127Z,6.35
2023-01-13T14:49:04.044Z,6.75
2023-01-13T14:52:20.355Z,6.45
2023-01-13T14:55:36.500Z,7.07
2023-01-13T14:58:42.991Z,5.77
2023-01-13T15:01:45.819Z,6.32
2023-01-13T15:04:48.878Z,5.95
2023-01-13T15:07:59.439Z,6.82
2023-01-13T15:11:07.833Z,6.60
2023-01-13T15:14:11.487Z,6.53
2023-01-13T15:17:17.543Z,6.93
2023-01-13T15:20:22.642Z,7.38
2023-01-13T15:23:25.325Z,6.80
2023-01-13T15:26:31.465Z,6.75
2023-01-13T15:29:34.142Z,6.20
2023-01-13T15:32:36.718Z,6.45
2023-01-13T15:35:43.021Z,6.13
2023-01-13T15:38:45.605Z,6.30
2023-01-13T15:42:07.571Z,6.18
2023-01-13T15:45:31.290Z,7.23
2023-01-13T15:48:35.784Z,7.05
2023-01-13T15:51:40.303Z,6.90
2023-01-13T15:54:43.186Z,6.70
2023-01-13T15:57:49.898Z,6.45
2023-01-13T16:00:53.608Z,7.23
2023-01-13T16:03:56.612Z,6.82
2023-01-13T16:06:59.625Z,6.55
2023-01-13T16:10:05.038Z,7.13
2023-01-13T16:13:07.744Z,7.03
2023-01-13T16:16:17.654Z,6.60
2023-01-13T16:19:20.404Z,7.35
2023-01-13T16:22:23.259Z,6.63
2023-01-13T16:25:27.295Z,6.60
2023-01-13T16:28:30.186Z,6.68
2023-01-13T16:31:35.075Z,7.60
2023-01-13T16:34:39.040Z,7.15
2023-01-13T16:37:41.717Z,6.57
2023-01-13T16:40:48.196Z,7.45
2023-01-13T16:43:51.358Z,7.20
2023-01-13T16:46:54.145Z,7.03
2023-01-13T16:49:56.836Z,8.07
2023-01-13T16:52:59.927Z,7.18
2023-01-13T16:56:02.853Z,7.10
2023-01-13T16:59:10.720Z,7.00
2023-01-13T17:02:19.649Z,7.30
2023-01-13T17:05:24.003Z,6.70
2023-01-13T17:08:27.122Z,7.30
2023-01-13T17:11:30.534Z,7.05
2023-01-13T17:14:34.186Z,7.10
2023-01-13T17:17:37.761Z,7.33
2023-01-13T17:20:41.349Z,7.13
2023-01-13T17:23:44.491Z,7.15
2023-01-13T17:26:50.530Z,7.75
2023-01-13T17:29:53.920Z,7.40
2023-01-13T17:32:58.936Z,6.90
2023-01-13T17:36:02.629Z,7.85
2023-01-13T17:39:05.607Z,6.95
2023-01-13T17:42:08.367Z,8.27
2023-01-13T17:45:12.519Z,7.45
2023-01-13T17:48:15.337Z,7.20
2023-01-13T17:51:19.110Z,7.50
2023-01-13T17:54:22.865Z,7.55
2023-01-13T17:57:27.151Z,7.50
2023-01-13T18:00:30.378Z,7.95
2023-01-13T18:03:33.237Z,7.23
2023-01-13T18:06:36.253Z,7.40
2023-01-13T18:09:39.232Z,7.78
2023-01-13T18:12:42.080Z,7.88
2023-01-13T18:15:46.970Z,7.90
2023-01-13T18:18:51.861Z,8.07
2023-01-13T18:22:14.676Z,7.70
2023-01-13T18:25:36.528Z,7.70
2023-01-13T18:28:40.216Z,7.75
2023-01-13T18:31:47.179Z,7.63
2023-01-13T18:34:58.697Z,7.33
2023-01-13T18:38:12.852Z,7.85
2023-01-13T18:41:35.242Z,7.93
2023-01-13T18:44:40.066Z,7.72
2023-01-13T18:47:43.105Z,8.32
2023-01-13T18:50:46.605Z,8.00
2023-01-13T18:53:50.983Z,7.18
2023-01-13T18:56:54.496Z,7.80
2023-01-13T18:59:58.310Z,7.55
2023-01-13T19:06:12.442Z,7.83
2023-01-13T19:09:17.394Z,8.07
2023-01-13T19:12:26.479Z,7.88
2023-01-13T19:15:31.087Z,8.07
2023-01-13T19:18:36.529Z,7.70
2023-01-13T19:21:39.637Z,8.57
2023-01-13T19:24:42.489Z,9.02
2023-01-13T19:27:45.973Z,8.75
2023-01-13T19:30:52.372Z,8.82
2023-01-13T19:33:56.714Z,9.23
2023-01-13T19:37:00.432Z,10.00
2023-01-13T19:40:09.444Z,9.75
2023-01-13T19:43:32.307Z,9.43
2023-01-13T19:46:35.612Z,10.35
2023-01-13T19:49:39.029Z,9.10
2023-01-13T19:52:42.934Z,9.80
2023-01-13T19:55:48.931Z,10.40
2023-01-13T19:58:53.815Z,10.40
2023-01-13T20:01:58.325Z,11.07
2023-01-13T20:05:05.911Z,9.95
2023-01-13T20:08:11.001Z,10.27
2023-01-13T20:11:26.561Z,10.35
2023-01-13T20:14:29.839Z,10.80
2023-01-13T20:17:33.153Z,10.73
2023-01-13T20:20:38.223Z,10.50
2023-01-13T20:23:41.251Z,11.57
2023-01-13T20:26:46.202Z,11.10
2023-01-13T20:29:50.343Z,10.82
2023-01-13T20:32:53.553Z,10.82
2023-01-13T20:35:58.755Z,10.25
2023-01-13T20:39:04.824Z,10.73
2023-01-13T20:42:28.405Z,10.82
2023-01-13T20:45:31.816Z,10.52
2023-01-13T20:48:36.132Z,11.05
2023-01-13T20:51:42.795Z,10.15
2023-01-13T20:54:48.106Z,11.00
2023-01-13T20:57:52.030Z,10.70
2023-01-13T21:00:59.435Z,10.95
2023-01-13T21:04:02.988Z,10.60
2023-01-13T21:07:06.360Z,10.30
2023-01-13T21:10:11.726Z,11.60
2023-01-13T21:13:33.380Z,12.40
2023-01-13T21:16:36.584Z,11.27
2023-01-13T21:19:39.658Z,10.32
2023-01-13T21:22:46.902Z,11.00
2023-01-13T21:25:49.608Z,10.83
2023-01-13T21:28:57.741Z,11.68
2023-01-13T21:32:00.741Z,10.88
2023-01-13T21:35:03.558Z,10.70
2023-01-13T21:38:06.403Z,11.90
2023-01-13T21:41:10.121Z,11.20
2023-01-13T21:44:37.127Z,11.07
2023-01-13T21:47:48.858Z,12.38
2023-01-13T21:50:51.614Z,12.63
2023-01-13T21:53:55.406Z,11.73
2023-01-13T21:56:59.513Z,12.47
2023-01-13T22:00:03.150Z,11.80
2023-01-13T22:03:09.338Z,12.18
2023-01-13T22:06:12.328Z,11.70
2023-01-13T22:09:15.293Z,11.23
2023-01-13T22:12:22.747Z,12.13
2023-01-13T22:15:28.063Z,11.50
2023-01-13T22:18:30.608Z,12.07
2023-01-13T22:21:33.493Z,12.25
2023-01-13T22:24:39.111Z,10.80
2023-01-13T22:27:44.441Z,12.00
2023-01-13T22:30:49.869Z,11.63
2023-01-13T22:33:56.129Z,12.13
2023-01-13T22:36:59.823Z,12.25
2023-01-13T22:40:04.082Z,12.82
2023-01-13T22:43:09.312Z,12.33
2023-01-13T22:46:13.430Z,13.38
2023-01-13T22:49:17.438Z,11.57
2023-01-13T22:52:20.350Z,13.57
2023-01-13T22:55:24.496Z,12.38
2023-01-13T22:58:27.413Z,13.93
2023-01-13T23:01:33.065Z,13.23
2023-01-13T23:04:36.175Z,13.00
2023-01-13T23:07:38.988Z,13.30
2023-01-13T23:10:42.725Z,12.55
2023-01-13T23:13:46.323Z,14.20
2023-01-13T23:16:48.985Z,13.77
2023-01-13T23:19:52.249Z,13.43
2023-01-13T23:22:55.161Z,13.75
2023-01-13T23:25:57.731Z,13.65
2023-01-13T23:29:06.706Z,14.10
2023-01-13T23:32:09.319Z,14.52
2023-01-13T23:35:12.416Z,13.45
2023-01-13T23:38:15.026Z,14.18
2023-01-13T23:41:20.681Z,14.90
2023-01-13T23:44:23.502Z,15.07
2023-01-13T23:47:26.257Z,14.40
2023-01-13T23:50:29.920Z,14.30
2023-01-13T23:53:35.457Z,14.23
2023-01-13T23:56:40.043Z,14.45
2023-01-13T23:59:42.769Z,15.83
